Terminal Aerodrome Forecast
Issued by NWS Sterling, VA

Current Version | Previous Version | Graphics & Text | Print | Product List | Glossary On
Versions: 1 2 3 4 5 6 7 8 9 10 11 12 13 14 15 16 17 18 19 20 21 22 23 24 25 26 27
000
FTUS41 KLWX 301121
TAFIAD
TAF
KIAD 301121Z 3012/3118 VRB03KT P6SM BKN035
     FM301400 17006KT 5SM -SHRA VCTS OVC025CB
     FM301800 16006KT P6SM -SHRA VCTS OVC045CB
     FM302200 15005KT 5SM SHRA VCTS OVC040CB
     FM310200 16004KT P6SM -SHRA VCTS BKN040CB
     FM310600 VRB03KT 3SM BR BKN045
     FM311200 VRB03KT P6SM BKN150=

USA.gov is the U.S. government's official web portal to all federal, state and local government web resources and services.